Overview Statistics Trail Chart Weather Telemetry Raw packets
 

This is the latest recevied weather packets stored in our database for station/object OK9CPU-9. If no packets are shown the sender has not sent any weather packets the latest 10 day(s).

<< 2 3 4 5 6 7 >>
Time Temp. Humidity Pressure Rain* Wind** Luminosity Snow
1788125201 20° C 33% 1015.8 hPa - - - -
1788121221 21.67° C 33% 1015.6 hPa - - - -
1788120226 21.67° C 33% 1015.6 hPa - - - -
1788118235 22.78° C 33% 1015.4 hPa - - - -
1788116245 23.33° C 33% 1015.2 hPa - - - -
1788113260 25° C 33% 1014.8 hPa - - - -
1788111270 26.67° C 32% 1014.4 hPa - - - -
1788108285 28.89° C 30% 1014.1 hPa - - - -
1788106295 30.56° C 30% 1014.2 hPa - - - -
1788082414 42.78° C 17% 1017.3 hPa - - - -
1788080424 41.67° C 17% 1017.5 hPa - - - -
1788079429 40.56° C 17% 1017.8 hPa - - - -
1788076444 38.33° C 17% 1017.7 hPa - - - -
1788074454 35.56° C 18% 1017.6 hPa - - - -
1788067488 21.11° C 24% 1017.2 hPa - - - -
1788066493 18.89° C 25% 1017.2 hPa - - - -
1788063508 12.78° C 33% 1017.2 hPa - - - -
1788061518 12.78° C 33% 1017.1 hPa - - - -
1788060523 12.78° C 33% 1017.2 hPa - - - -
1788059528 13.33° C 33% 1017.1 hPa - - - -
1788057538 13.89° C 33% 1017 hPa - - - -
1788056543 13.89° C 33% 1017 hPa - - - -
1788055548 14.44° C 32% 1016.9 hPa - - - -
1788051568 15° C 32% 1016.8 hPa - - - -
1788050573 15.56° C 32% 1016.8 hPa - - - -

* Rain since midnight (hover to see other rain measurements)
** Current wind speed in m/s (hover to see current wind gust speed)